Time;durP1;ratioP1;P1;durP2;ratioP2;P2;SDS_P1;SDS_P2;PMS_P1;PMS_P2;Temp;Humidity;BMP_temperature;BMP_pressure;BME280_temperature;BME280_humidity;BME280_pressure;Samples;Min_cycle;Max_cycle;Signal;HPM_P1;HPM_P2
2024/03/13 00:01:18;;;;;;;3.15;1.90;;;;;;;3.83;100.00;97522.94;1223731;75;2921461;-65
2024/03/13 00:03:51;;;;;;;3.55;2.45;;;;;;;3.68;100.00;97528.03;1223599;75;2921369;-66
2024/03/13 00:06:24;;;;;;;3.25;2.20;;;;;;;3.77;100.00;97517.28;1224672;75;2922275;-64
2024/03/13 00:08:59;;;;;;;2.65;1.90;;;;;;;3.84;100.00;97521.75;1225055;75;2924647;-65
2024/03/13 00:11:31;;;;;;;3.40;2.20;;;;;;;3.58;100.00;97519.03;1224451;75;2926865;-64
2024/03/13 00:14:07;;;;;;;2.70;2.00;;;;;;;3.65;100.00;97523.47;1224025;75;2932309;-65
2024/03/13 00:16:43;;;;;;;3.90;2.10;;;;;;;3.39;100.00;97520.75;1225346;75;2880262;-64
2024/03/13 00:19:15;;;;;;;3.20;2.20;;;;;;;3.40;100.00;97519.53;1224201;75;2913958;-67
2024/03/13 00:21:48;;;;;;;3.90;2.75;;;;;;;3.35;100.00;97528.19;1225252;75;2922482;-66
2024/03/13 00:24:21;;;;;;;2.80;2.10;;;;;;;3.49;100.00;97523.56;1224741;75;2924469;-65
2024/03/13 00:26:57;;;;;;;2.15;1.80;;;;;;;3.45;100.00;97531.03;1224328;75;2928702;-65
2024/03/13 00:29:33;;;;;;;2.90;2.15;;;;;;;3.25;100.00;97521.16;1224477;75;2917412;-66
2024/03/13 00:32:06;;;;;;;3.45;2.50;;;;;;;3.26;100.00;97519.19;1224138;75;2924417;-65
2024/03/13 00:34:38;;;;;;;3.25;2.20;;;;;;;3.30;100.00;97520.63;1224652;75;2924889;-64
2024/03/13 00:37:12;;;;;;;2.90;1.90;;;;;;;3.30;100.00;97517.16;1223466;75;2930627;-65
2024/03/13 00:39:45;;;;;;;2.15;1.75;;;;;;;3.19;100.00;97530.97;1223138;75;2930544;-67
2024/03/13 00:42:18;;;;;;;2.85;1.90;;;;;;;3.30;100.00;97525.28;1224707;75;2916635;-65
2024/03/13 00:44:54;;;;;;;2.85;2.20;;;;;;;2.96;100.00;97516.53;1224753;75;2921299;-64
2024/03/13 00:47:27;;;;;;;3.20;1.90;;;;;;;3.23;100.00;97520.06;1224513;75;2922702;-67
2024/03/13 00:50:01;;;;;;;2.35;1.80;;;;;;;3.24;100.00;97526.97;1224880;75;2929068;-65
2024/03/13 00:52:35;;;;;;;2.40;1.65;;;;;;;3.14;100.00;97520.69;1223330;75;2922257;-64
2024/03/13 00:55:09;;;;;;;3.65;2.00;;;;;;;2.85;100.00;97518.00;1224686;75;2918301;-63
2024/03/13 00:57:46;;;;;;;3.80;2.55;;;;;;;2.78;100.00;97516.97;1223595;75;2920462;-65
2024/03/13 01:00:28;;;;;;;2.25;1.80;;;;;;;3.03;100.00;97528.31;1225109;75;2923510;-64
2024/03/13 01:03:02;;;;;;;2.75;1.90;;;;;;;2.85;100.00;97521.44;1224343;75;2920400;-63
2024/03/13 01:05:35;;;;;;;2.15;1.70;;;;;;;2.93;100.00;97524.72;1223358;75;2920625;-65
2024/03/13 01:08:09;;;;;;;3.40;2.00;;;;;;;2.96;100.00;97526.59;1224485;75;2923370;-63
2024/03/13 01:10:43;;;;;;;3.65;2.50;;;;;;;2.71;100.00;97521.81;1224078;75;2924155;-65
2024/03/13 01:13:18;;;;;;;3.20;2.30;;;;;;;2.73;100.00;97525.63;1223822;75;2925223;-64
2024/03/13 01:15:54;;;;;;;2.40;1.85;;;;;;;2.75;100.00;97527.91;1223801;75;2920527;-65
2024/03/13 01:18:27;;;;;;;2.10;1.80;;;;;;;2.83;100.00;97534.63;1225042;75;2917084;-65
2024/03/13 01:20:59;;;;;;;2.55;1.90;;;;;;;2.78;100.00;97522.38;1224567;75;2917569;-66
2024/03/13 01:23:32;;;;;;;1.70;1.60;;;;;;;2.57;100.00;97528.34;1222762;75;2932012;-64
2024/03/13 01:26:05;;;;;;;2.60;1.85;;;;;;;2.62;100.00;97524.38;1223708;75;2924164;-64
2024/03/13 01:28:39;;;;;;;2.15;1.65;;;;;;;2.65;100.00;97526.25;1224079;75;2950736;-65
2024/03/13 01:31:14;;;;;;;2.80;1.70;;;;;;;2.55;100.00;97523.38;1223736;75;2917948;-65
2024/03/13 01:33:47;;;;;;;1.50;1.25;;;;;;;2.64;100.00;97516.59;1223928;75;2922183;-66
2024/03/13 01:37:55;;;;;;;1.90;1.40;;;;;;;2.54;100.00;97527.25;1220894;75;3061690;-65
2024/03/13 01:39:10;;;;;;;1.80;1.50;;;;;;;2.45;100.00;97527.09;1222816;75;2928506;-64
2024/03/13 01:55:48;;;;;;;1.65;1.25;;;;;;;2.44;100.00;97527.53;1224305;75;2916335;-64
2024/03/13 01:58:39;;;;;;;1.45;1.30;;;;;;;2.46;100.00;97535.97;1224050;75;2926954;-64
2024/03/13 02:04:00;;;;;;;1.60;1.20;;;;;;;2.45;100.00;97537.16;1223881;75;2920292;-68
2024/03/13 02:06:33;;;;;;;1.95;1.40;;;;;;;2.39;100.00;97545.00;1224208;75;2940758;-67
2024/03/13 02:09:06;;;;;;;2.80;1.30;;;;;;;2.13;100.00;97531.34;1223866;75;2954419;-66
2024/03/13 02:11:39;;;;;;;1.60;1.30;;;;;;;2.25;100.00;97542.66;1224174;75;2925091;-66
2024/03/13 02:14:12;;;;;;;2.30;1.60;;;;;;;2.07;100.00;97545.78;1224082;75;2923047;-66
2024/03/13 02:16:45;;;;;;;2.00;1.65;;;;;;;2.11;100.00;97543.75;1223747;75;2922817;-65
2024/03/13 02:19:21;;;;;;;2.10;1.50;;;;;;;2.24;100.00;97549.25;1224504;75;2923241;-64
2024/03/13 02:21:59;;;;;;;1.90;1.40;;;;;;;2.26;100.00;97549.56;1223832;75;2924238;-65
2024/03/13 02:24:34;;;;;;;1.25;1.05;;;;;;;2.22;100.00;97548.91;1223904;75;2945229;-64
2024/03/13 02:27:13;;;;;;;1.30;1.10;;;;;;;2.07;100.00;97554.63;1223607;75;2931259;-65
2024/03/13 02:29:49;;;;;;;3.45;2.20;;;;;;;1.69;100.00;97557.03;1223190;75;2934405;-66
2024/03/13 02:32:22;;;;;;;4.75;2.65;;;;;;;1.73;100.00;97548.84;1221188;75;2940847;-65
2024/03/13 02:34:56;;;;;;;3.00;2.35;;;;;;;2.02;100.00;97549.75;1224106;75;2862933;-65
2024/03/13 02:37:29;;;;;;;2.95;2.20;;;;;;;2.09;100.00;97548.81;1223769;75;2921936;-65
2024/03/13 02:40:06;;;;;;;5.10;2.20;;;;;;;2.04;100.00;97544.66;1223469;75;2927057;-65
2024/03/13 02:42:39;;;;;;;2.75;1.80;;;;;;;2.11;100.00;97541.03;1223550;75;2945128;-67
2024/03/13 02:45:13;;;;;;;1.60;1.40;;;;;;;1.97;100.00;97541.38;1223309;75;2945280;-65
2024/03/13 02:47:46;;;;;;;1.70;1.45;;;;;;;2.00;100.00;97544.00;1223730;75;2929164;-64
2024/03/13 02:50:19;;;;;;;2.60;1.90;;;;;;;1.81;100.00;97539.44;1223923;75;2923512;-63
2024/03/13 02:52:52;;;;;;;2.95;1.55;;;;;;;1.92;100.00;97546.09;1222980;75;2922852;-65
2024/03/13 02:55:27;;;;;;;2.60;1.70;;;;;;;1.99;100.00;97539.75;1223687;75;2933018;-64
2024/03/13 02:58:01;;;;;;;2.05;1.65;;;;;;;1.86;100.00;97553.16;1224309;75;2927183;-64
2024/03/13 03:00:34;;;;;;;3.20;1.90;;;;;;;1.78;100.00;97551.03;1223323;75;2922868;-65
2024/03/13 03:03:11;;;;;;;2.80;1.80;;;;;;;1.73;100.00;97546.91;1223362;75;2926768;-66
2024/03/13 03:05:45;;;;;;;1.55;1.40;;;;;;;1.92;100.00;97562.31;1223702;75;2922090;-64
2024/03/13 03:08:18;;;;;;;1.65;1.35;;;;;;;1.78;100.00;97551.03;1223567;75;2922843;-65
2024/03/13 03:10:51;;;;;;;1.65;1.30;;;;;;;1.83;100.00;97551.31;1223860;75;2924569;-65
2024/03/13 03:13:24;;;;;;;2.45;1.90;;;;;;;1.87;100.00;97553.94;1223778;75;2934061;-66
2024/03/13 03:15:59;;;;;;;1.70;1.35;;;;;;;1.98;100.00;97548.31;1224063;75;2925456;-64
2024/03/13 03:18:32;;;;;;;1.70;1.35;;;;;;;2.03;100.00;97555.91;1223794;75;2924035;-64
2024/03/13 03:21:06;;;;;;;1.70;1.40;;;;;;;1.83;100.00;97564.81;1223021;75;2931446;-67
2024/03/13 03:23:39;;;;;;;2.05;1.60;;;;;;;1.78;100.00;97561.84;1223928;75;2936260;-67
2024/03/13 03:26:21;;;;;;;1.30;1.20;;;;;;;1.82;100.00;97555.19;1223705;75;2926330;-64
2024/03/13 03:28:53;;;;;;;1.70;1.20;;;;;;;1.81;100.00;97553.66;1223233;75;2935392;-65
2024/03/13 03:31:26;;;;;;;1.10;1.00;;;;;;;1.81;100.00;97553.66;1224164;75;2923428;-65
2024/03/13 03:33:59;;;;;;;1.25;1.15;;;;;;;1.84;100.00;97562.88;1223893;75;2930848;-65
2024/03/13 03:36:32;;;;;;;1.30;1.20;;;;;;;1.86;100.00;97568.63;1223587;75;2922116;-65
2024/03/13 03:39:10;;;;;;;3.00;1.30;;;;;;;1.82;100.00;97570.63;1223432;75;2923061;-64
2024/03/13 03:41:46;;;;;;;1.30;1.20;;;;;;;1.87;100.00;97570.88;1223676;75;2916312;-66
2024/03/13 03:44:19;;;;;;;1.10;1.00;;;;;;;1.85;100.00;97567.84;1223851;75;2925052;-66
2024/03/13 03:46:51;;;;;;;1.10;1.00;;;;;;;1.78;100.00;97572.63;1223625;75;2929545;-63
2024/03/13 03:49:24;;;;;;;1.40;1.20;;;;;;;1.78;100.00;97567.22;1223381;75;2931947;-65
2024/03/13 03:51:57;;;;;;;1.40;1.20;;;;;;;1.86;100.00;97572.06;1223496;75;2923880;-64
2024/03/13 03:54:31;;;;;;;1.60;1.10;;;;;;;1.88;100.00;97572.41;1223494;75;2930245;-65
2024/03/13 03:57:06;;;;;;;1.45;1.30;;;;;;;1.84;100.00;97573.66;1223076;75;2937572;-66
2024/03/13 03:59:39;;;;;;;1.50;1.20;;;;;;;1.70;100.00;97566.63;1223213;75;2933838;-65
2024/03/13 04:02:16;;;;;;;1.45;1.35;;;;;;;1.79;100.00;97572.22;1223877;75;2926581;-68
2024/03/13 04:04:49;;;;;;;1.20;1.10;;;;;;;1.74;100.00;97572.72;1224074;75;2909300;-65
2024/03/13 04:07:22;;;;;;;2.25;1.45;;;;;;;1.82;100.00;97576.78;1223638;75;2922143;-63
2024/03/13 04:09:54;;;;;;;1.75;1.40;;;;;;;1.67;100.00;97573.63;1222781;75;2943749;-64
2024/03/13 04:12:30;;;;;;;1.25;1.15;;;;;;;1.74;100.00;97570.03;1223674;75;2925327;-64
2024/03/13 04:15:04;;;;;;;2.00;1.15;;;;;;;1.59;100.00;97572.25;1223234;75;2930358;-66
2024/03/13 04:17:37;;;;;;;1.60;1.30;;;;;;;1.62;100.00;97567.97;1224076;75;2926731;-66
2024/03/13 04:20:21;;;;;;;1.30;1.10;;;;;;;1.64;100.00;97571.78;1223008;75;2922960;-64
2024/03/13 04:22:54;;;;;;;3.05;1.50;;;;;;;1.60;100.00;97576.47;1223487;75;2922514;-64
2024/03/13 04:25:27;;;;;;;2.30;1.60;;;;;;;1.26;100.00;97580.22;1222498;75;2920272;-67
2024/03/13 04:28:02;;;;;;;4.00;1.90;;;;;;;1.42;100.00;97578.75;1223363;75;2923633;-64
2024/03/13 04:30:35;;;;;;;3.45;2.20;;;;;;;1.27;100.00;97573.69;1222965;75;2924328;-65
2024/03/13 04:33:08;;;;;;;3.80;1.95;;;;;;;1.38;100.00;97594.28;1223718;75;2919439;-64
2024/03/13 04:35:41;;;;;;;1.90;1.50;;;;;;;1.52;100.00;97587.84;1223064;75;2926231;-63
2024/03/13 04:38:15;;;;;;;2.90;1.40;;;;;;;1.36;100.00;97589.28;1222347;75;2951400;-67
2024/03/13 04:40:48;;;;;;;1.65;1.30;;;;;;;1.42;100.00;97586.84;1223963;75;2923906;-66
2024/03/13 04:43:23;;;;;;;1.55;1.30;;;;;;;1.47;100.00;97586.38;1222268;75;2923575;-65
2024/03/13 04:45:56;;;;;;;2.05;1.45;;;;;;;1.45;100.00;97581.41;1223900;75;2919773;-65
2024/03/13 04:48:29;;;;;;;1.75;1.10;;;;;;;1.45;100.00;97594.13;1223057;75;2945789;-65
2024/03/13 04:51:02;;;;;;;1.25;1.05;;;;;;;1.44;100.00;97596.06;1222640;75;2921627;-64
2024/03/13 04:53:35;;;;;;;1.20;1.10;;;;;;;1.39;100.00;97596.53;1223511;75;2921240;-65
2024/03/13 04:56:11;;;;;;;2.95;1.50;;;;;;;1.31;100.00;97597.09;1223328;75;2926434;-64
2024/03/13 04:58:46;;;;;;;1.85;1.40;;;;;;;1.30;100.00;97598.28;1223847;75;2936673;-66
2024/03/13 05:01:23;;;;;;;1.75;1.40;;;;;;;1.26;100.00;97607.19;1222877;75;2929076;-66
2024/03/13 05:03:55;;;;;;;1.40;1.30;;;;;;;1.21;100.00;97599.59;1223074;75;2921059;-64
2024/03/13 05:06:29;;;;;;;1.95;1.50;;;;;;;1.22;100.00;97597.66;1223638;75;2923200;-65
2024/03/13 05:09:02;;;;;;;3.80;1.50;;;;;;;1.15;100.00;97600.47;1222516;75;2925312;-65
2024/03/13 05:11:34;;;;;;;2.25;1.70;;;;;;;0.96;100.00;97608.16;1222912;75;2926888;-65
2024/03/13 05:14:10;;;;;;;1.50;1.40;;;;;;;1.15;100.00;97611.25;1223476;75;2922366;-63
2024/03/13 05:16:45;;;;;;;3.05;1.45;;;;;;;1.09;100.00;97611.00;1223333;75;2930108;-63
2024/03/13 05:19:18;;;;;;;2.40;1.60;;;;;;;1.15;100.00;97609.31;1223737;75;2920516;-65
2024/03/13 05:21:51;;;;;;;2.00;1.65;;;;;;;1.11;100.00;97614.03;1223107;75;2924332;-65
2024/03/13 05:24:24;;;;;;;5.60;4.40;;;;;;;1.03;100.00;97626.09;1223337;75;2925060;-66
2024/03/13 05:26:58;;;;;;;11.25;8.70;;;;;;;0.97;100.00;97617.75;1223434;75;2939653;-64
2024/03/13 05:29:33;;;;;;;12.30;9.55;;;;;;;0.90;100.00;97628.66;1223496;75;2935672;-63
2024/03/13 05:32:11;;;;;;;10.90;8.45;;;;;;;1.04;100.00;97614.16;1186265;75;5784244;-65
2024/03/13 05:34:44;;;;;;;10.00;7.70;;;;;;;1.05;100.00;97621.06;1223661;75;2941290;-65
2024/03/13 05:37:17;;;;;;;7.65;5.90;;;;;;;1.08;100.00;97622.16;1224080;75;2908054;-64
2024/03/13 05:39:52;;;;;;;13.45;5.95;;;;;;;1.12;100.00;97618.25;1222830;75;2973922;-63
2024/03/13 05:42:25;;;;;;;11.10;6.40;;;;;;;1.11;100.00;97627.50;1223290;67;2927388;-67
2024/03/13 05:45:01;;;;;;;14.95;9.85;;;;;;;1.08;100.00;97630.25;1224125;83;2923722;-64
2024/03/13 05:47:34;;;;;;;11.70;8.05;;;;;;;1.06;100.00;97630.69;1223033;75;2943315;-63
2024/03/13 05:50:09;;;;;;;8.00;5.85;;;;;;;1.09;100.00;97629.09;1222766;75;2924284;-64
2024/03/13 05:52:45;;;;;;;8.90;6.90;;;;;;;1.12;100.00;97639.06;1222245;75;2941226;-64
2024/03/13 05:55:18;;;;;;;15.55;11.70;;;;;;;1.06;100.00;97630.69;1222843;75;2923895;-63
2024/03/13 05:57:51;;;;;;;15.15;8.65;;;;;;;1.13;100.00;97641.34;1221498;75;2981926;-64
2024/03/13 06:00:27;;;;;;;10.30;6.05;;;;;;;1.22;100.00;97644.25;1222595;75;2931281;-64
2024/03/13 06:03:00;;;;;;;8.80;5.80;;;;;;;1.18;100.00;97640.88;1223102;75;2922877;-64
2024/03/13 06:05:33;;;;;;;5.30;4.05;;;;;;;1.27;100.00;97637.63;1222103;75;2939222;-66
2024/03/13 06:08:06;;;;;;;4.15;2.95;;;;;;;1.30;100.00;97642.19;1223226;75;2933636;-64
2024/03/13 06:10:38;;;;;;;3.75;2.50;;;;;;;1.40;100.00;97638.53;1223353;75;2930859;-64
2024/03/13 06:13:11;;;;;;;5.55;3.50;;;;;;;1.33;100.00;97640.59;1220669;75;2928033;-66
2024/03/13 06:15:47;;;;;;;5.20;4.40;;;;;;;1.35;100.00;97640.94;1222995;75;2928564;-65
2024/03/13 06:18:20;;;;;;;8.25;5.35;;;;;;;1.25;100.00;97650.75;1223442;75;2930819;-65
2024/03/13 06:20:53;;;;;;;7.80;5.50;;;;;;;1.38;100.00;97648.97;1223366;75;2934522;-65
2024/03/13 06:23:27;;;;;;;6.70;4.60;;;;;;;1.51;100.00;97645.66;1223278;75;2915478;-63
2024/03/13 06:26:00;;;;;;;7.85;4.20;;;;;;;1.50;100.00;97650.28;1222958;75;2920963;-65
2024/03/13 06:31:21;;;;;;;7.35;4.30;;;;;;;1.64;100.00;97654.66;1223599;75;2923904;-65
2024/03/13 06:33:56;;;;;;;5.15;3.20;;;;;;;1.81;100.00;97660.88;1222990;75;2930177;-64
2024/03/13 06:36:29;;;;;;;4.95;3.00;;;;;;;1.92;100.00;97661.41;1223507;75;2924405;-64
2024/03/13 06:39:02;;;;;;;3.80;2.40;;;;;;;1.98;100.00;97659.75;1222063;75;2941089;-63
2024/03/13 06:41:35;;;;;;;6.35;3.35;;;;;;;2.15;100.00;97660.53;1222858;75;2930532;-66
2024/03/13 06:44:08;;;;;;;5.05;3.00;;;;;;;2.25;100.00;97661.50;1223074;75;2924921;-65
2024/03/13 06:46:44;;;;;;;4.05;2.90;;;;;;;2.31;100.00;97663.28;1223383;75;2924119;-64
2024/03/13 06:49:20;;;;;;;3.15;2.45;;;;;;;2.67;100.00;97675.97;1223928;75;2908935;-64
2024/03/13 06:51:54;;;;;;;6.00;3.25;;;;;;;2.65;100.00;97664.84;1222766;75;2930344;-65
2024/03/13 06:54:27;;;;;;;6.15;3.70;;;;;;;2.92;100.00;97669.97;1223426;75;2931261;-65
2024/03/13 06:56:59;;;;;;;6.15;3.10;;;;;;;3.19;100.00;97671.63;1223777;75;2932624;-65
2024/03/13 06:59:32;;;;;;;6.75;3.25;;;;;;;3.44;100.00;97672.91;1222790;75;2926423;-65
2024/03/13 07:02:11;;;;;;;4.60;3.45;;;;;;;3.67;100.00;97664.56;1222433;75;2940741;-64
2024/03/13 07:04:43;;;;;;;10.90;7.60;;;;;;;3.79;100.00;97665.78;1222554;75;2932557;-64
2024/03/13 07:07:16;;;;;;;8.20;6.10;;;;;;;4.21;100.00;97665.75;1221983;75;2922856;-64
2024/03/13 07:09:49;;;;;;;8.80;6.45;;;;;;;4.44;100.00;97670.09;1223574;75;2922625;-65
2024/03/13 07:12:24;;;;;;;9.00;6.40;;;;;;;4.61;100.00;97668.78;1221809;75;2922854;-64
2024/03/13 07:14:57;;;;;;;6.00;4.50;;;;;;;4.61;100.00;97671.50;1222871;75;2930302;-64
2024/03/13 07:17:32;;;;;;;7.30;4.40;;;;;;;4.26;100.00;97667.94;1223843;75;2927661;-65
2024/03/13 07:20:09;;;;;;;8.40;6.65;;;;;;;4.79;100.00;97668.25;1222832;75;2932108;-65
2024/03/13 07:22:42;;;;;;;7.45;5.95;;;;;;;5.28;100.00;97669.75;1222078;75;2930169;-66
2024/03/13 07:25:17;;;;;;;7.30;5.95;;;;;;;5.45;100.00;97668.38;1222428;75;2928415;-64
2024/03/13 07:27:51;;;;;;;8.05;6.45;;;;;;;5.50;100.00;97667.81;1221823;75;2926775;-63
2024/03/13 07:30:26;;;;;;;10.95;7.10;;;;;;;5.61;100.00;97669.41;1213821;75;2933485;-65
2024/03/13 07:33:03;;;;;;;8.35;6.30;;;;;;;5.39;100.00;97670.16;1222956;75;2924885;-64
2024/03/13 07:35:36;;;;;;;8.05;5.80;;;;;;;5.19;100.00;97675.09;1222638;75;2936595;-65
2024/03/13 07:38:10;;;;;;;8.45;6.05;;;;;;;5.48;100.00;97672.94;1221487;75;2926801;-65
2024/03/13 07:40:43;;;;;;;7.85;5.60;;;;;;;5.38;100.00;97674.03;1221461;75;2927324;-65
2024/03/13 07:43:16;;;;;;;10.00;5.70;;;;;;;5.06;100.00;97670.47;1223009;75;2927444;-66
2024/03/13 07:45:49;;;;;;;9.45;5.85;;;;;;;5.49;100.00;97669.03;1221670;75;2921018;-65
2024/03/13 07:48:27;;;;;;;7.75;4.60;;;;;;;5.75;100.00;97672.38;1221423;75;2931540;-66
2024/03/13 07:51:00;;;;;;;8.80;5.20;;;;;;;5.50;100.00;97672.47;1222425;83;2924680;-65
2024/03/13 07:53:33;;;;;;;9.15;5.30;;;;;;;5.63;100.00;97673.19;1222333;75;2917478;-67
2024/03/13 07:56:07;;;;;;;6.55;4.55;;;;;;;6.04;100.00;97667.88;1221356;75;2931398;-65
2024/03/13 07:58:40;;;;;;;6.10;4.20;;;;;;;5.95;100.00;97663.91;1221757;75;2923525;-64
2024/03/13 08:01:12;;;;;;;7.85;5.30;;;;;;;6.05;100.00;97672.13;1222317;75;2930142;-65
2024/03/13 08:03:48;;;;;;;6.45;4.60;;;;;;;6.63;100.00;97674.19;1222820;75;2937938;-64
2024/03/13 08:06:21;;;;;;;5.85;3.65;;;;;;;6.82;99.68;97673.03;1223034;75;2924020;-64
2024/03/13 08:08:54;;;;;;;9.00;4.55;;;;;;;6.71;98.07;97667.28;1222546;75;2849207;-65
2024/03/13 08:11:30;;;;;;;6.55;3.90;;;;;;;7.39;96.38;97669.97;1222424;75;2920652;-65
2024/03/13 08:14:04;;;;;;;4.15;2.95;;;;;;;7.68;91.82;97677.66;1223060;75;2926469;-65
2024/03/13 08:16:36;;;;;;;6.80;4.15;;;;;;;7.45;94.25;97672.81;1223645;75;2957911;-64
2024/03/13 08:19:12;;;;;;;5.45;3.90;;;;;;;7.87;88.03;97674.94;1223138;75;2919059;-67
2024/03/13 08:21:45;;;;;;;5.15;3.40;;;;;;;8.26;88.45;97678.63;1222659;75;2923761;-64
2024/03/13 08:24:18;;;;;;;5.65;4.00;;;;;;;8.15;86.15;97678.34;1222879;75;2934434;-65
2024/03/13 08:26:51;;;;;;;5.35;4.10;;;;;;;8.50;82.59;97684.16;1223328;75;2931036;-67
2024/03/13 08:29:24;;;;;;;5.20;3.40;;;;;;;8.95;82.91;97668.03;1222735;75;2944209;-65
2024/03/13 08:31:56;;;;;;;6.00;3.30;;;;;;;9.12;80.64;97676.59;1224180;75;2923737;-65
2024/03/13 08:34:32;;;;;;;5.20;3.20;;;;;;;9.40;78.77;97668.94;1223537;75;2924985;-65
2024/03/13 08:37:06;;;;;;;5.70;3.25;;;;;;;9.13;79.84;97670.66;1222946;75;2925968;-64
2024/03/13 08:39:41;;;;;;;5.50;3.40;;;;;;;9.47;79.92;97676.03;1223551;75;2931507;-65
2024/03/13 08:42:14;;;;;;;6.75;4.15;;;;;;;9.84;77.34;97668.28;1222144;75;2942400;-65
2024/03/13 08:44:47;;;;;;;7.45;4.50;;;;;;;10.57;76.00;97669.47;1224032;75;2923339;-64
2024/03/13 08:47:20;;;;;;;6.50;4.05;;;;;;;10.99;73.49;97671.06;1223839;75;2929288;-65
2024/03/13 08:49:55;;;;;;;5.80;4.10;;;;;;;11.06;71.13;97670.66;1222815;75;2923599;-65
2024/03/13 08:52:28;;;;;;;7.25;4.55;;;;;;;11.29;68.52;97671.69;1224033;75;2932989;-67
2024/03/13 08:55:01;;;;;;;8.30;4.25;;;;;;;11.73;66.16;97678.16;1223726;75;2926723;-67
2024/03/13 08:57:34;;;;;;;8.80;4.00;;;;;;;11.78;67.57;97676.72;1223147;75;2926601;-63
2024/03/13 09:00:10;;;;;;;6.95;3.70;;;;;;;11.92;64.08;97668.41;1223307;75;2929855;-65
2024/03/13 09:02:42;;;;;;;4.55;3.20;;;;;;;11.73;60.91;97676.16;1221624;75;2927490;-67
2024/03/13 09:05:18;;;;;;;5.10;3.35;;;;;;;12.54;62.49;97670.91;1223380;75;2923633;-65
2024/03/13 09:07:51;;;;;;;4.50;3.40;;;;;;;13.20;61.91;97674.53;1222238;75;2928555;-65
2024/03/13 09:10:24;;;;;;;7.60;4.45;;;;;;;11.68;62.62;97676.84;1222586;75;2885501;-64
2024/03/13 09:12:57;;;;;;;6.85;4.30;;;;;;;12.40;60.93;97672.56;1222720;75;2934782;-65
2024/03/13 09:15:30;;;;;;;5.80;3.45;;;;;;;12.76;61.40;97668.31;1221772;75;2938076;-64
2024/03/13 09:18:03;;;;;;;6.40;3.65;;;;;;;12.78;61.48;97673.31;1217794;75;3007229;-69
2024/03/13 09:20:38;;;;;;;6.20;3.75;;;;;;;13.41;60.84;97675.16;1223041;75;2928325;-66
2024/03/13 09:23:12;;;;;;;6.50;3.90;;;;;;;13.47;57.73;97680.66;1223092;67;2928979;-64
2024/03/13 09:25:46;;;;;;;5.95;3.70;;;;;;;13.13;58.36;97677.75;1222447;75;2925908;-66
2024/03/13 09:28:19;;;;;;;4.70;2.75;;;;;;;14.02;55.29;97676.56;1222943;75;2924941;-66
2024/03/13 09:30:52;;;;;;;6.75;3.00;;;;;;;14.25;53.57;97674.59;1222519;75;2929696;-66
2024/03/13 09:33:25;;;;;;;5.25;2.65;;;;;;;14.53;53.28;97676.56;1223422;67;2932302;-66
2024/03/13 09:36:00;;;;;;;5.05;3.30;;;;;;;14.75;52.77;97671.09;1223924;75;2924137;-64
2024/03/13 09:38:33;;;;;;;4.65;2.70;;;;;;;13.42;51.64;97674.69;1221520;75;2932086;-65
2024/03/13 09:41:10;;;;;;;4.15;2.65;;;;;;;14.09;49.21;97675.31;1223467;75;2919691;-65
2024/03/13 09:43:44;;;;;;;4.10;3.00;;;;;;;14.58;48.47;97668.34;1222469;83;2925727;-69
2024/03/13 09:46:18;;;;;;;4.30;2.40;;;;;;;14.75;50.73;97668.31;1222751;75;2925109;-65
2024/03/13 09:48:55;;;;;;;2.95;2.00;;;;;;;16.31;50.25;97667.38;1221618;75;2924420;-65
2024/03/13 09:51:31;;;;;;;4.80;2.45;;;;;;;15.77;47.69;97663.94;1223070;75;2930213;-64
2024/03/13 09:54:05;;;;;;;4.10;2.70;;;;;;;15.13;47.21;97663.22;1222481;75;2926261;-65
2024/03/13 09:56:40;;;;;;;4.15;2.20;;;;;;;16.43;46.40;97659.72;1223577;75;2927177;-66
2024/03/13 09:59:16;;;;;;;4.70;2.65;;;;;;;15.97;45.54;97662.84;1221273;75;2936453;-66
2024/03/13 10:01:55;;;;;;;4.75;2.20;;;;;;;16.77;44.74;97657.41;1223700;75;2934091;-65
2024/03/13 10:04:29;;;;;;;3.25;2.10;;;;;;;16.94;43.78;97655.25;1223300;75;2924645;-68
2024/03/13 10:07:07;;;;;;;3.15;2.10;;;;;;;17.94;42.88;97639.91;1222378;75;2942573;-67
2024/03/13 10:09:40;;;;;;;2.80;1.90;;;;;;;18.34;42.14;97640.06;1221882;75;2926122;-67
2024/03/13 10:12:15;;;;;;;3.40;2.10;;;;;;;18.15;40.42;97645.63;1223241;75;2924685;-66
2024/03/13 10:14:50;;;;;;;3.25;1.90;;;;;;;18.31;41.62;97636.31;1224194;75;2932585;-68
2024/03/13 10:17:27;;;;;;;3.40;2.20;;;;;;;17.34;41.44;97647.25;1222324;75;2962667;-65
2024/03/13 10:20:08;;;;;;;4.60;2.70;;;;;;;17.25;41.13;97633.78;1224195;75;2925271;-64
2024/03/13 10:22:44;;;;;;;3.80;2.30;;;;;;;17.29;41.08;97639.75;1224287;75;2925142;-67
2024/03/13 10:25:19;;;;;;;3.85;2.15;;;;;;;17.60;42.02;97638.34;1223228;75;2921309;-67
2024/03/13 10:27:51;;;;;;;5.25;1.75;;;;;;;19.12;40.19;97624.78;1223019;75;2928228;-66
2024/03/13 10:30:25;;;;;;;3.90;2.60;;;;;;;19.08;39.15;97627.13;1222542;75;2922983;-65
2024/03/13 10:32:59;;;;;;;2.40;1.60;;;;;;;19.55;38.59;97623.66;1224113;75;2936174;-63
2024/03/13 10:35:31;;;;;;;2.40;1.50;;;;;;;20.56;38.89;97631.66;1221238;75;2929470;-67
2024/03/13 10:38:10;;;;;;;3.55;2.50;;;;;;;16.84;39.74;97629.22;1223002;75;2924698;-67
2024/03/13 10:40:44;;;;;;;2.70;1.80;;;;;;;19.81;37.15;97621.34;1222980;75;2924719;-65
2024/03/13 10:43:16;;;;;;;2.40;1.65;;;;;;;20.41;36.98;97623.94;1220949;75;2933931;-65
2024/03/13 10:45:52;;;;;;;2.85;1.90;;;;;;;20.18;35.97;97620.97;1224119;75;2920808;-66
2024/03/13 10:48:25;;;;;;;3.60;1.80;;;;;;;19.48;35.17;97621.53;1222056;75;2936576;-67
2024/03/13 10:51:00;;;;;;;2.00;1.65;;;;;;;20.31;36.30;97625.72;1223515;75;2923560;-67
2024/03/13 10:53:36;;;;;;;3.75;1.95;;;;;;;18.90;38.27;97619.66;1221600;75;2924474;-67
2024/03/13 10:56:16;;;;;;;4.05;2.20;;;;;;;18.70;37.72;97613.44;1222226;75;2926199;-65
2024/03/13 10:58:49;;;;;;;1.80;1.30;;;;;;;20.55;36.31;97621.06;1222013;75;2927585;-66
2024/03/13 11:01:23;;;;;;;4.10;1.80;;;;;;;17.13;38.16;97610.28;1223199;75;2926148;-66
2024/03/13 11:04:03;;;;;;;2.65;1.60;;;;;;;17.94;37.23;97609.44;1223195;75;2931839;-66
2024/03/13 11:06:37;;;;;;;2.70;1.60;;;;;;;19.14;35.79;97602.03;1224337;75;2913165;-70
2024/03/13 11:09:20;;;;;;;2.65;1.50;;;;;;;17.97;37.73;97592.53;1224202;75;2919660;-68
2024/03/13 11:11:56;;;;;;;3.90;1.80;;;;;;;17.46;38.85;97601.56;1223347;75;2926805;-67
2024/03/13 11:14:31;;;;;;;6.00;1.90;;;;;;;17.33;38.92;97606.25;1223194;75;2922248;-67
2024/03/13 11:17:10;;;;;;;4.60;1.60;;;;;;;18.30;38.00;97604.31;1091237;75;10285968;-65
2024/03/13 11:19:43;;;;;;;5.80;2.30;;;;;;;17.42;36.78;97603.13;1222137;75;2926811;-64
2024/03/13 11:22:16;;;;;;;2.45;1.70;;;;;;;17.25;37.80;97598.56;1222138;75;2931161;-69
2024/03/13 11:24:52;;;;;;;2.60;1.50;;;;;;;18.48;36.04;97591.69;1223570;75;2921523;-66
2024/03/13 11:27:30;;;;;;;2.45;1.60;;;;;;;17.27;38.90;97594.50;1222839;75;2927665;-68
2024/03/13 11:30:06;;;;;;;2.80;1.80;;;;;;;16.45;38.25;97586.13;1223545;75;2921224;-66
2024/03/13 11:32:40;;;;;;;2.95;1.70;;;;;;;18.14;36.35;97585.97;1224386;75;2920340;-65
2024/03/13 11:35:14;;;;;;;4.80;1.40;;;;;;;17.70;36.82;97569.47;1223439;75;2929415;-66
2024/03/13 11:37:48;;;;;;;3.55;2.00;;;;;;;16.96;39.60;97574.53;1224009;75;2925035;-65
2024/03/13 11:40:24;;;;;;;1.90;1.45;;;;;;;18.24;37.44;97567.66;1219301;75;2926034;-66
2024/03/13 11:43:04;;;;;;;5.30;1.95;;;;;;;17.12;37.11;97558.97;1224260;75;2912094;-68
2024/03/13 11:45:46;;;;;;;3.50;2.05;;;;;;;18.46;37.29;97560.97;1223891;75;2914282;-66
2024/03/13 11:48:20;;;;;;;1.80;1.30;;;;;;;19.25;36.80;97549.09;1222875;75;2934846;-65
2024/03/13 11:51:10;;;;;;;1.90;1.40;;;;;;;19.18;35.30;97551.78;1222034;75;2924644;-67
2024/03/13 11:53:45;;;;;;;2.60;1.50;;;;;;;19.24;36.38;97552.38;1222420;75;2929900;-65
2024/03/13 11:56:29;;;;;;;2.10;1.70;;;;;;;17.81;37.53;97547.19;1223832;75;2919898;-64
2024/03/13 11:59:01;;;;;;;2.55;1.50;;;;;;;19.06;36.20;97545.72;1223527;75;2929080;-66
2024/03/13 12:01:35;;;;;;;3.55;1.90;;;;;;;17.61;37.02;97534.66;1221935;75;2927092;-66
2024/03/13 12:04:08;;;;;;;2.80;1.90;;;;;;;16.11;38.86;97544.97;1222173;75;2920212;-68
2024/03/13 12:06:42;;;;;;;2.80;2.05;;;;;;;15.89;39.50;97543.16;1222725;75;2927308;-68
2024/03/13 12:09:19;;;;;;;3.25;1.80;;;;;;;15.89;39.81;97539.66;1221576;75;2931633;-69